Airfield :
LOGIN :

Register | Disclaimer

   EN    FR    IT 

 










Legend :    VFR   Marginal VFR   IFR   Intensive IFR   Very Intensive IFR
Visi :
Ceiling :
>= 8 km
>= 3000ft
5 to 8 km
1000 to 3000 ft
1500m to 5 km
500 to 1000 ft
800 to 1500m
200 to 500 ft
< 800m
< 200 ft
Symbols :   Thunderstorms  Fog  Heavy snow  Heavy precipitations  Wind > 20 kt
SIGMETs :     Misc.  Thunderstorms  Icing  Turbulence  Mountain Waves  Volcanic Ashes






- Airport Elevation : 70 ft
- IATA code : WBG


ETNS - Schleswig

CURRENT METAR :
  • 211220Z 17011KT 7000 -RA FEW005 BKN008 12/11 Q1001 GRN YLO TEMPO GRN

EXPIRED METARs :
  • 211120Z 17010KT 6000 -RA BKN005 BKN012 13/12 Q1002 YLO YLO TEMPO GRN
  • 211020Z 17008KT 4500 -RA BR BKN004 13/12 Q1003 YLO YLO TEMPO GRN

TAF TAF ETNS
Valid from the 21 at 10:00 until the 21 at 20:00 UTC


211020Z 2110/2120 17010KT 4000 -RA OVC005
TEMPO 2110/2113 16010KT 6000 NSW SCT006 BKN008
BECMG 2113/2115 18012KT 9000 NSW SCT012 BKN030
TEMPO 2115/2120 20015G25KT 5000 -RA BKN010 BKN020 BY ETGL



MET'MAP, your aeronautical weather chart ! - Copyright ORBIFLY December 2007 - Disclaimer

ORBIFLY MET'MAP TEAM :

Programming & Development : Alexandra Zaïnal
Concept & original design : Baudouin d'Aumeries
Assistance for programming : Marc-Olivier Méhu
Technical & hardware support : Manuel Goepfert

Contact : metmap@orbifly.com




SOURCES & CREDITS :

   NOAA